Flight Track Log - Related Links

Times and Time Zones

All times are in EDT time to prevent confusion due to time zone crossing. See the ASH2710 flight status page for this flight to view local times or setup timezone preferences in your user account.

Time Position Orientation Groundspeed Altitude Reporting Facility
EDT Latitude Longitude Course Direction KTS MPH feet Rate Location/Type
Wed 10:23:04 AM 38.7667 -90.4333 130° Southeast 180 207 2,200  Level Gateway (St. Louis) TRACON
Wed 10:24:04 AM 38.7833 -90.5167 284° West 260 299 4,000 2,268 Climbing Gateway (St. Louis) TRACON
Wed 10:25:00 AM 38.5469 -90.0589 127° Southeast  Level FlightAware Approximate
Wed 10:25:11 AM 38.7161 -90.5258 186° South 272 313 7,000  Level Kansas City Center
Wed 10:26:00 AM 38.4847 -89.9523 127° Southeast  Level FlightAware Approximate
Wed 10:26:13 AM 38.6742 -90.4417 123° Southeast 285 328 9,900  Level Kansas City Center
Wed 10:27:00 AM 38.4174 -89.8510 130° Southeast  Level FlightAware Approximate
Wed 10:27:15 AM 38.6222 -90.3369 122° Southeast 300 345 13,100  Level Kansas City Center
Wed 10:28:00 AM 38.3500 -89.7499 130° Southeast  Level FlightAware Approximate
Wed 10:28:17 AM 38.5708 -90.2469 126° Southeast 310 357 15,700  Level Kansas City Center
Wed 10:29:18 AM 38.5250 -90.1450 120° Southeast 326 375 18,100 2,195 Climbing Kansas City Center
Wed 10:30:20 AM 38.4778 -90.0400 120° Southeast 334 384 20,200 1,694 Climbing Kansas City Center
Wed 10:31:22 AM 38.4294 -89.9314 120° Southeast 343 395 21,600 1,306 Climbing Kansas City Center
Wed 10:32:24 AM 38.3747 -89.8061 119° Southeast 386 444 22,900 1,306 Climbing Kansas City Center
Wed 10:33:26 AM 38.2983 -89.6628 124° Southeast 421 484 24,300 1,452 Climbing Kansas City Center
Wed 10:34:28 AM 38.2114 -89.5389 132° Southeast 436 502 25,900 1,463 Climbing Kansas City Center
Wed 10:35:29 AM 38.1292 -89.4200 131° Southeast 448 516 27,300 1,268 Climbing Kansas City Center
Wed 10:36:31 AM 38.0369 -89.2914 132° Southeast 459 528 28,500 1,161 Climbing Kansas City Center
Wed 10:37:33 AM 37.9506 -89.1675 131° Southeast 469 540 29,700 1,258 Climbing Kansas City Center
Wed 10:38:35 AM 37.8614 -89.0397 131° Southeast 475 547 31,100 1,258 Climbing Kansas City Center
Wed 10:39:37 AM 37.7803 -88.9200 131° Southeast 476 548 32,300 1,122 Climbing Kansas City Center
Wed 10:40:38 AM 37.6919 -88.7964 132° Southeast 473 544 33,400 1,122 Climbing Kansas City Center
Wed 10:41:40 AM 37.5997 -88.6717 133° Southeast 465 535 34,600 1,231 Climbing Kansas City Center
Wed 10:41:56 AM 37.5697 -88.6300 132° Southeast 466 536 35,000 1,184 Climbing Memphis Center
Wed 10:42:56 AM 37.4908 -88.5039 128° Southeast 466 536 36,100 1,000 Climbing Memphis Center
Wed 10:43:56 AM 37.4283 -88.3642 119° Southeast 466 536 37,000 450 Climbing Memphis Center
Wed 10:44:56 AM 37.3614 -88.2197 120° Southeast 461 531 37,000  Level Memphis Center
Wed 10:45:56 AM 37.2961 -88.0731 119° Southeast 471 542 37,000  Level Memphis Center
Wed 10:46:56 AM 37.2311 -87.9342 120° Southeast 498 573 37,000  Level Memphis Center
Wed 10:47:56 AM 37.1550 -87.7700 120° Southeast 504 580 37,000  Level Memphis Center
Wed 10:48:56 AM 37.0850 -87.6239 121° Southeast 504 580 37,000  Level Memphis Center
Wed 10:49:56 AM 37.0150 -87.4731 120° Southeast 498 573 37,000  Level Memphis Center
Wed 10:50:56 AM 36.9469 -87.3275 120° Southeast 498 573 37,000 -350 Level Memphis Center
Wed 10:51:56 AM 36.8767 -87.1797 121° Southeast 492 566 36,300 -500 Descending Memphis Center
Wed 10:52:56 AM 36.8103 -87.0372 120° Southeast 484 557 36,000 -150 Descending Memphis Center
Wed 10:53:56 AM 36.7439 -86.8978 121° Southeast 472 543 36,000  Level Memphis Center
Wed 10:54:56 AM 36.6819 -86.7683 121° Southeast 472 543 36,000  Level Memphis Center
Wed 10:55:56 AM 36.6131 -86.6242 121° Southeast 479 551 36,000  Level Memphis Center
Wed 10:56:56 AM 36.5442 -86.4800 121° Southeast 479 551 36,000  Level Memphis Center
Wed 10:57:56 AM 36.4683 -86.3264 122° Southeast 479 551 36,000 -50 Level Memphis Center
Wed 10:58:56 AM 36.3969 -86.1828 122° Southeast 484 557 35,900 -500 Descending Memphis Center
Wed 10:59:56 AM 36.3294 -86.0447 121° Southeast 479 551 35,000 -450 Descending Memphis Center
Wed 11:00:56 AM 36.2664 -85.9092 120° Southeast 469 540 35,000  Level Memphis Center
Wed 11:03:09 AM 36.1231 -85.6272 122° Southeast 447 514 35,000  Level Atlanta Center
Wed 11:04:09 AM 36.0581 -85.4925 121° Southeast 447 514 35,000  Level Atlanta Center
Wed 11:05:09 AM 36.0306 -85.3406 103° East 440 506 35,000  Level Atlanta Center
Wed 11:06:09 AM 36.0194 -85.1864 95° East 446 513 35,000  Level Atlanta Center
Wed 11:07:09 AM 36.0064 -85.0244 96° East 458 527 35,000  Level Atlanta Center
Wed 11:08:09 AM 35.9950 -84.8625 95° East 468 539 35,000  Level Atlanta Center
Wed 11:09:09 AM 35.9814 -84.7317 97° East 473 544 35,000  Level Atlanta Center
Wed 11:10:09 AM 35.9656 -84.5569 96° East 473 544 35,000 -150 Level Atlanta Center
Wed 11:11:09 AM 35.9492 -84.3953 97° East 473 544 34,700 -750 Descending Atlanta Center
Wed 11:12:09 AM 35.9350 -84.2286 96° East 473 544 33,500 -1,250 Descending Atlanta Center
Wed 11:13:09 AM 35.9186 -84.0619 97° East 484 557 32,200 -1,150 Descending Atlanta Center
Wed 11:14:09 AM 35.9039 -83.8978 96° East 484 557 31,200 -1,050 Descending Atlanta Center
Wed 11:15:09 AM 35.9014 -83.7389 91° East 473 544 30,100 -1,050 Descending Atlanta Center
Wed 11:16:09 AM 35.8969 -83.5800 92° East 468 539 29,100 -550 Descending Atlanta Center
Wed 11:17:09 AM 35.8961 -83.4236 90° East 455 524 29,000 -50 Descending Atlanta Center
Wed 11:18:09 AM 35.8931 -83.2722 91° East 442 509 29,000 -700 Level Atlanta Center
Wed 11:19:09 AM 35.8878 -83.1031 92° East 442 509 27,600 -1,450 Descending Atlanta Center
Wed 11:20:09 AM 35.9033 -82.9672 82° East 423 487 26,100 -1,488 Descending Atlanta Center
Wed 11:21:10 AM 35.9356 -82.8358 73° East 397 457 24,600 -1,050 Descending Atlanta Center
Wed 11:22:09 AM 35.9614 -82.7047 76° East 391 450 24,000 -303 Descending Atlanta Center
Wed 11:23:09 AM 35.9431 -82.5639 99° East 406 467 24,000  Level Atlanta Center
Wed 11:24:09 AM 35.9225 -82.4283 101° East 406 467 24,000 -700 Level Atlanta Center
Wed 11:25:09 AM 35.9019 -82.2981 101° East 400 460 22,600 -1,450 Descending Atlanta Center
Wed 11:26:09 AM 35.8919 -82.1728 96° East 374 430 21,100 -1,550 Descending Atlanta Center
Wed 11:27:09 AM 35.8711 -82.0450 101° East 374 430 19,500 -1,550 Descending Atlanta Center
Wed 11:28:09 AM 35.8317 -81.9308 113° Southeast 367 422 18,000 -1,700 Descending Atlanta Center
Wed 11:29:09 AM 35.7717 -81.8403 129° Southeast 350 403 16,100 -2,077 Descending Atlanta Center
Wed 11:29:53 AM 35.7286 -81.7747 129° Southeast 345 397 14,400 -2,400 Descending Atlanta Center
Wed 11:30:09 AM 35.7094 -81.7447 128° Southeast 350 403 13,700 -2,368 Descending Atlanta Center
Wed 11:31:09 AM 35.6492 -81.6544 129° Southeast 350 403 11,400 -1,373 Descending Atlanta Center
Wed 11:32:07 AM 35.5975 -81.5742 128° Southeast 322 371 11,000 -200 Descending Atlanta Center
Wed 11:33:09 AM 35.5372 -81.4817 129° Southeast 328 377 11,000 -590 Level Atlanta Center
Wed 11:34:09 AM 35.5019 -81.3858 114° Southeast 312 359 9,800 -1,323 Descending Atlanta Center
Wed 11:35:16 AM 35.4767 -81.2819 107° East 295 339 8,200 -1,254 Descending Atlanta Center
Wed 11:36:23 AM 35.4553 -81.1731 104° East 280 322 7,000 -1,009 Descending Atlanta Center
Wed 11:37:09 AM 35.4475 -81.1069 98° East 274 315 6,300 -1,082 Descending Atlanta Center
Wed 11:37:24 AM 35.4450 -81.0867 99° East 242 278 5,900 -1,600 Descending Atlanta Center
Wed 11:38:09 AM 35.4331 -81.0258 104° East 254 292 4,700 -1,475 Descending Atlanta Center
Wed 11:38:25 AM 35.4225 -81.0186 151° Southeast 228 262 4,400 -1,100 Descending Atlanta Center
Wed 11:39:09 AM 35.3881 -80.9842 141° Southeast 207 238 3,600 -828 Descending Atlanta Center
Wed 11:40:21 AM 35.3275 -80.9789 176° South 187 215 2,800 -667 Descending Atlanta Center

Login

Don't have an account? Register now (free) for customized features, flight alerts, and more!